Time;durP1;ratioP1;P1;durP2;ratioP2;P2;SDS_P1;SDS_P2;PMS_P1;PMS_P2;Temp;Humidity;BMP_temperature;BMP_pressure;BME280_temperature;BME280_humidity;BME280_pressure;Samples;Min_cycle;Max_cycle;Signal;HPM_P1;HPM_P2
2022/06/12 00:00:31;;;;;;;24.73;6.95;;;;;;;21.61;42.52;101937.22;5035241;28;20029;-84
2022/06/12 00:02:59;;;;;;;19.75;6.50;;;;;;;21.55;42.80;101933.91;5035224;28;20021;-83
2022/06/12 00:05:29;;;;;;;20.45;6.50;;;;;;;21.85;42.03;101927.88;5016159;28;20017;-84
2022/06/12 00:07:54;;;;;;;23.00;6.50;;;;;;;21.62;42.80;101929.72;5017232;28;20029;-84
2022/06/12 00:10:20;;;;;;;23.50;6.85;;;;;;;21.93;42.00;101926.06;5017299;28;20037;-85
2022/06/12 00:12:47;;;;;;;24.92;7.28;;;;;;;21.91;41.92;101933.97;5017113;28;20124;-83
2022/06/12 00:15:17;;;;;;;20.77;7.03;;;;;;;21.86;42.06;101927.53;5034895;28;20034;-84
2022/06/12 00:17:43;;;;;;;;;;;;;;;21.60;42.60;101935.59;5017270;28;20045;-84
2022/06/12 00:20:12;;;;;;;24.55;7.45;;;;;;;21.69;42.25;101932.63;5017186;28;19967;-84
2022/06/12 00:22:38;;;;;;;25.80;7.22;;;;;;;21.84;41.78;101927.09;5034676;28;20032;-83
2022/06/12 00:25:06;;;;;;;26.05;8.52;;;;;;;21.89;41.81;101932.34;5017033;28;20108;-84
2022/06/12 00:27:32;;;;;;;27.85;6.88;;;;;;;21.81;41.90;101930.56;5016499;28;20025;-83
2022/06/12 00:29:58;;;;;;;26.08;8.77;;;;;;;21.96;41.54;101939.25;5016788;28;20025;-84
2022/06/12 00:32:24;;;;;;;20.98;7.43;;;;;;;21.97;41.30;101936.09;5034596;28;20372;-83
2022/06/12 00:34:53;;;;;;;21.75;7.50;;;;;;;21.99;41.44;101931.00;5034519;28;20022;-85
2022/06/12 00:37:21;;;;;;;28.35;8.05;;;;;;;21.61;42.03;101945.56;5034405;28;20022;-85
2022/06/12 00:39:48;;;;;;;20.58;6.50;;;;;;;21.86;41.41;101933.09;5034425;28;20559;-84
2022/06/12 00:42:43;;;;;;;31.10;7.53;;;;;;;21.76;41.63;101947.53;5016462;28;20030;-83
2022/06/12 00:45:30;;;;;;;26.73;7.03;;;;;;;21.68;41.69;101951.31;5017134;28;20361;-82
2022/06/12 00:48:01;;;;;;;25.00;8.00;;;;;;;21.69;41.67;101952.94;5016445;28;20112;-84
2022/06/12 00:50:29;;;;;;;23.23;8.05;;;;;;;21.47;42.00;101946.03;5034316;28;20043;-84
2022/06/12 00:52:56;;;;;;;27.50;6.97;;;;;;;21.65;41.68;101948.44;5016263;28;20033;-84
2022/06/12 00:55:43;;;;;;;32.30;8.25;;;;;;;21.60;41.54;101955.06;5016460;28;20039;-83
2022/06/12 00:58:16;;;;;;;27.38;7.60;;;;;;;21.29;42.17;101959.44;5033787;28;20484;-84
2022/06/12 01:00:42;;;;;;;23.92;6.75;;;;;;;21.52;41.61;101961.63;5016310;28;20025;-83
2022/06/12 01:03:10;;;;;;;25.58;7.93;;;;;;;21.60;41.67;101961.44;5016239;28;20395;-83
2022/06/12 01:08:21;;;;;;;14.98;7.43;;;;;;;21.46;41.74;101955.53;5033915;28;20040;-83
2022/06/12 01:10:50;;;;;;;26.42;7.57;;;;;;;21.52;41.98;101958.84;5015919;28;20587;-83
2022/06/12 01:13:38;;;;;;;28.55;8.02;;;;;;;21.50;41.73;101955.63;5015982;28;20025;-84
2022/06/12 01:16:12;;;;;;;16.42;6.70;;;;;;;21.64;41.54;101957.97;5015214;28;20037;-84
2022/06/12 01:18:43;;;;;;;17.38;6.60;;;;;;;21.68;41.34;101962.44;5033298;28;20045;-84
2022/06/12 01:21:18;;;;;;;22.73;7.30;;;;;;;21.62;41.37;101968.66;5015898;28;20025;-84
2022/06/12 01:24:17;;;;;;;24.05;8.02;;;;;;;21.55;41.64;101963.72;5033628;28;20376;-83
2022/06/12 01:26:52;;;;;;;24.63;7.55;;;;;;;21.55;41.54;101963.72;5015575;28;20566;-84
2022/06/12 01:29:52;;;;;;;24.38;7.20;;;;;;;21.31;41.94;101962.69;5015803;28;20064;-84
2022/06/12 01:32:34;;;;;;;17.45;6.68;;;;;;;21.47;41.52;101965.50;5015647;28;20029;-84
2022/06/12 01:35:23;;;;;;;24.02;7.00;;;;;;;21.28;42.15;101962.59;5015659;28;20039;-83
2022/06/12 01:38:08;;;;;;;21.25;6.97;;;;;;;21.28;41.96;101963.41;5033491;28;20030;-83
2022/06/12 01:40:39;;;;;;;21.58;7.20;;;;;;;21.35;41.80;101968.34;5015536;28;20377;-83
2022/06/12 01:43:19;;;;;;;20.30;7.05;;;;;;;21.21;41.92;101979.03;5015522;28;20097;-83
2022/06/12 01:46:07;;;;;;;23.58;6.85;;;;;;;21.28;41.59;101982.84;5015657;28;20091;-84
2022/06/12 01:48:43;;;;;;;26.92;7.05;;;;;;;21.14;41.86;101976.88;5015604;28;20136;-82
2022/06/12 01:51:21;;;;;;;24.20;7.47;;;;;;;21.00;42.31;101988.41;5033055;28;20542;-84
2022/06/12 01:54:03;;;;;;;25.17;7.18;;;;;;;21.09;42.17;101987.47;5015422;28;20021;-83
2022/06/12 01:56:38;;;;;;;29.73;9.18;;;;;;;21.05;41.93;101993.72;5015207;28;20048;-83
2022/06/12 01:59:24;;;;;;;22.83;7.80;;;;;;;21.04;41.88;101991.28;5015319;28;20038;-83
2022/06/12 02:01:53;;;;;;;21.85;6.55;;;;;;;20.82;42.52;101992.66;5015325;28;20480;-83
2022/06/12 02:04:24;;;;;;;18.58;6.90;;;;;;;20.99;42.25;101992.34;5032969;28;20032;-83
2022/06/12 02:07:25;;;;;;;26.35;8.07;;;;;;;20.79;42.65;101998.91;5032743;28;20021;-83
2022/06/12 02:09:59;;;;;;;29.08;8.70;;;;;;;20.78;42.53;101995.34;5032649;28;20080;-82
2022/06/12 02:15:28;;;;;;;27.85;7.82;;;;;;;20.83;42.58;101994.25;5032592;28;20494;-84
2022/06/12 02:18:03;;;;;;;21.92;7.47;;;;;;;20.93;42.13;101992.94;5032578;28;20056;-83
2022/06/12 02:20:34;;;;;;;22.02;7.30;;;;;;;20.78;42.48;102000.06;5032713;28;20053;-83
2022/06/12 02:23:06;;;;;;;30.00;8.35;;;;;;;20.82;42.48;101992.66;5032673;28;20029;-83
2022/06/12 02:25:35;;;;;;;27.17;8.38;;;;;;;20.71;42.59;101997.09;5014519;28;20025;-84
2022/06/12 02:28:13;;;;;;;17.58;6.90;;;;;;;20.67;42.80;101991.41;5032594;28;20029;-84
2022/06/12 02:30:43;;;;;;;29.42;8.02;;;;;;;20.62;42.77;101994.44;5036609;28;20038;-83
2022/06/12 02:33:17;;;;;;;27.92;8.43;;;;;;;20.71;42.46;102003.47;5036876;28;20487;-83
2022/06/12 02:36:01;;;;;;;25.08;8.63;;;;;;;20.61;42.69;101997.56;5019251;28;20036;-83
2022/06/12 02:38:35;;;;;;;29.33;8.05;;;;;;;20.61;42.51;101997.56;5015876;28;20387;-83
2022/06/12 02:41:20;;;;;;;23.00;7.30;;;;;;;20.59;42.46;102000.69;5018113;28;20393;-83
2022/06/12 02:43:48;;;;;;;23.17;7.72;;;;;;;20.56;42.50;102000.59;5018544;28;20030;-84
2022/06/12 02:46:19;;;;;;;23.67;7.95;;;;;;;20.54;42.72;102002.91;5018731;28;20361;-83
2022/06/12 02:48:45;;;;;;;28.27;7.38;;;;;;;20.54;42.49;102003.72;5018422;28;20022;-83
2022/06/12 02:51:17;;;;;;;22.88;6.57;;;;;;;20.48;42.59;102002.34;5018424;28;20083;-83
2022/06/12 02:53:51;;;;;;;26.35;6.70;;;;;;;20.53;42.50;102004.06;5018509;28;20036;-83
2022/06/12 02:56:41;;;;;;;36.38;9.65;;;;;;;20.45;42.68;102005.81;5018494;28;20037;-83
2022/06/12 02:59:07;;;;;;;23.48;6.78;;;;;;;20.53;42.54;102013.19;5036403;28;20029;-83
2022/06/12 03:01:42;;;;;;;26.15;8.18;;;;;;;20.46;42.73;102002.69;5018324;28;20040;-84
2022/06/12 03:04:34;;;;;;;21.00;7.50;;;;;;;20.56;42.43;102017.25;5036238;28;20057;-84
2022/06/12 03:07:00;;;;;;;21.83;7.97;;;;;;;20.66;42.43;102022.31;5018299;28;20063;-83
2022/06/12 03:09:26;;;;;;;18.90;6.38;;;;;;;20.67;42.22;102021.16;5035983;28;20481;-83
2022/06/12 03:11:54;;;;;;;21.25;7.68;;;;;;;20.69;42.41;102024.38;5036028;28;20032;-83
2022/06/12 03:14:22;;;;;;;22.10;6.53;;;;;;;20.69;42.29;102027.16;5018180;28;20030;-83
2022/06/12 03:16:48;;;;;;;19.65;7.22;;;;;;;20.65;42.37;102026.25;5035768;28;20025;-84
2022/06/12 03:19:27;;;;;;;21.80;7.32;;;;;;;20.56;42.62;102012.53;5035874;28;20060;-83
2022/06/12 03:22:32;;;;;;;19.38;6.80;;;;;;;20.55;42.49;102021.97;5018091;28;20132;-84
2022/06/12 03:25:19;;;;;;;21.35;7.20;;;;;;;20.48;42.67;102014.28;5017815;28;20029;-84
2022/06/12 03:28:03;;;;;;;24.42;6.78;;;;;;;20.57;42.53;102018.88;5035652;28;20037;-83
2022/06/12 03:30:31;;;;;;;21.88;6.50;;;;;;;20.49;42.50;102018.66;5018086;28;20037;-83
2022/06/12 03:33:09;;;;;;;24.80;6.80;;;;;;;20.41;42.48;102019.56;5017482;28;20040;-83
2022/06/12 03:35:54;;;;;;;21.70;8.15;;;;;;;19.96;43.60;102028.03;4998284;28;20034;-84
2022/06/12 03:38:38;;;;;;;21.20;7.40;;;;;;;20.28;42.86;102025.47;5014446;28;20040;-83
2022/06/12 03:41:23;;;;;;;18.23;6.20;;;;;;;20.06;43.38;102035.88;4997918;28;20026;-83
2022/06/12 03:43:48;;;;;;;27.05;7.63;;;;;;;20.27;42.77;102030.22;5014323;28;20447;-83
2022/06/12 03:46:39;;;;;;;31.55;7.45;;;;;;;20.19;42.84;102028.38;5014399;28;20038;-83
2022/06/12 03:49:30;;;;;;;30.17;6.07;;;;;;;20.23;42.65;102026.50;4997870;28;20095;-83
2022/06/12 03:52:12;;;;;;;24.80;6.22;;;;;;;20.15;42.88;102025.47;5015572;28;20034;-83
2022/06/12 03:55:00;;;;;;;25.00;8.32;;;;;;;20.22;42.29;102034.03;5031768;28;20392;-83
2022/06/12 03:57:53;;;;;;;21.65;5.30;;;;;;;20.09;42.92;102032.41;5035241;28;20037;-82
2022/06/12 04:00:34;;;;;;;21.63;6.00;;;;;;;20.14;42.64;102023.84;5035327;28;20036;-83
2022/06/12 04:03:09;;;;;;;20.25;7.43;;;;;;;20.13;42.58;102038.06;5033411;28;20125;-84
2022/06/12 04:05:42;;;;;;;15.70;5.28;;;;;;;19.89;43.30;102045.22;5017391;28;20037;-83
2022/06/12 04:08:14;;;;;;;25.40;6.55;;;;;;;20.06;42.80;102044.19;5016896;28;20037;-82
2022/06/12 04:10:40;;;;;;;30.70;8.10;;;;;;;20.15;42.50;102036.56;5017190;28;20585;-83
2022/06/12 04:13:10;;;;;;;24.38;7.05;;;;;;;20.10;42.61;102041.53;5016975;28;20025;-83
2022/06/12 04:15:57;;;;;;;23.52;7.03;;;;;;;20.04;42.76;102040.16;5017337;28;20091;-84
2022/06/12 04:18:27;;;;;;;27.27;6.85;;;;;;;20.09;42.78;102037.94;5016701;28;20500;-83
2022/06/12 04:21:03;;;;;;;23.98;6.65;;;;;;;20.04;42.86;102040.16;5016886;28;20494;-83
2022/06/12 04:23:47;;;;;;;28.23;6.88;;;;;;;20.16;42.54;102043.72;5034516;28;20024;-84
2022/06/12 04:26:32;;;;;;;19.15;5.88;;;;;;;20.17;42.53;102050.09;5016831;28;20037;-83
2022/06/12 04:29:05;;;;;;;24.30;6.57;;;;;;;20.02;42.97;102045.22;5016688;28;20044;-84
2022/06/12 04:31:33;;;;;;;18.10;6.13;;;;;;;20.14;42.55;102040.50;5016517;28;20037;-84
2022/06/12 04:34:36;;;;;;;30.38;6.63;;;;;;;20.01;43.04;102047.19;5016343;28;20025;-82
2022/06/12 04:37:11;;;;;;;20.48;6.07;;;;;;;20.15;42.43;102052.41;4986048;28;20061;-84
2022/06/12 04:39:36;;;;;;;30.65;8.32;;;;;;;20.10;42.67;102049.84;5016698;28;20038;-83
2022/06/12 04:42:03;;;;;;;26.27;6.43;;;;;;;20.01;43.18;102065.81;5016404;28;20021;-82
2022/06/12 04:44:29;;;;;;;20.13;6.47;;;;;;;20.07;42.64;102061.66;5016828;28;20021;-84
2022/06/12 04:46:57;;;;;;;19.15;6.85;;;;;;;20.15;42.78;102060.72;5016558;28;20125;-84
2022/06/12 04:49:26;;;;;;;20.17;6.88;;;;;;;20.17;42.75;102056.44;5016571;28;20427;-83
2022/06/12 04:51:54;;;;;;;19.88;6.13;;;;;;;20.26;42.69;102061.91;5033227;28;20018;-83
2022/06/12 04:54:22;;;;;;;26.30;7.70;;;;;;;20.34;42.59;102060.97;5016260;28;20513;-83
2022/06/12 04:56:48;;;;;;;19.65;6.63;;;;;;;20.46;42.67;102062.94;5034139;28;20053;-83
2022/06/12 04:59:16;;;;;;;19.20;6.40;;;;;;;20.41;42.93;102063.97;5033957;28;20059;-84
2022/06/12 05:01:43;;;;;;;26.33;6.30;;;;;;;20.40;42.82;102059.59;5033793;28;20026;-83
2022/06/12 05:04:10;;;;;;;20.55;6.55;;;;;;;20.70;42.29;102067.66;5016025;28;20023;-84
2022/06/12 05:06:37;;;;;;;27.00;6.85;;;;;;;20.80;42.22;102066.38;5015931;28;20369;-83
2022/06/12 05:09:03;;;;;;;19.48;6.82;;;;;;;20.71;42.38;102069.31;5015946;28;20033;-83
2022/06/12 05:11:29;;;;;;;20.48;5.68;;;;;;;20.74;42.21;102072.19;5033694;28;20022;-84
2022/06/12 05:13:55;;;;;;;30.55;8.40;;;;;;;20.88;42.08;102062.66;5033653;28;20026;-84
2022/06/12 05:16:38;;;;;;;25.55;6.85;;;;;;;20.71;42.17;102066.53;5033893;28;20025;-83
2022/06/12 05:19:06;;;;;;;24.88;6.10;;;;;;;20.76;42.44;102060.72;5033590;28;20553;-84
2022/06/12 05:21:33;;;;;;;17.88;6.60;;;;;;;20.76;42.08;102066.25;5015634;28;20040;-85
2022/06/12 05:24:00;;;;;;;18.02;6.45;;;;;;;20.87;42.02;102059.06;5015794;28;20032;-84
2022/06/12 05:26:26;;;;;;;20.67;6.53;;;;;;;20.90;42.09;102058.34;5015952;28;20025;-84
2022/06/12 05:28:53;;;;;;;27.05;7.13;;;;;;;21.00;41.89;102060.63;5015470;28;20045;-84
2022/06/12 05:31:19;;;;;;;23.05;6.82;;;;;;;21.22;41.48;102064.03;5015632;28;20120;-84
2022/06/12 05:33:46;;;;;;;20.58;7.78;;;;;;;21.18;41.42;102052.03;5033278;28;20112;-83
2022/06/12 05:36:16;;;;;;;22.65;5.72;;;;;;;21.10;41.61;102053.78;5015481;28;20034;-82
2022/06/12 05:38:42;;;;;;;;;;;;;;;21.12;41.67;102061.78;5015993;28;20060;-83
2022/06/12 05:41:08;;;;;;;26.35;6.30;;;;;;;21.38;41.44;102053.81;5015605;28;19913;-84
2022/06/12 05:43:34;;;;;;;25.67;6.22;;;;;;;21.46;40.95;102055.66;5015488;28;20029;-84
2022/06/12 05:46:00;;;;;;;16.60;5.53;;;;;;;21.57;40.71;102056.72;5015360;28;20022;-84
2022/06/12 05:48:26;;;;;;;23.52;6.60;;;;;;;21.48;40.83;102067.22;5015481;28;20059;-83
2022/06/12 05:50:55;;;;;;;20.67;5.75;;;;;;;21.51;40.65;102074.81;5015294;28;20042;-84
2022/06/12 05:53:23;;;;;;;27.75;6.90;;;;;;;21.48;40.54;102077.53;5015440;28;20499;-83
2022/06/12 05:55:50;;;;;;;23.35;5.65;;;;;;;21.24;41.13;102082.00;5033207;28;20053;-84
2022/06/12 05:58:17;;;;;;;19.95;6.45;;;;;;;21.57;40.35;102087.31;5015438;28;20030;-84
2022/06/12 06:00:44;;;;;;;25.13;7.72;;;;;;;21.98;39.92;102087.19;5015713;28;20036;-84
2022/06/12 06:03:09;;;;;;;22.08;6.25;;;;;;;22.02;39.72;102080.56;5000012;28;20026;-91
2022/06/12 06:05:40;;;;;;;25.35;6.30;;;;;;;22.04;39.50;102075.44;4996644;28;20080;-90
2022/06/12 06:08:08;;;;;;;24.65;6.15;;;;;;;22.04;39.57;102080.19;4996480;28;20029;-86
2022/06/12 06:10:34;;;;;;;21.92;5.85;;;;;;;22.12;39.64;102082.00;4996679;28;20518;-88
2022/06/12 06:13:00;;;;;;;22.65;6.63;;;;;;;22.16;39.75;102077.34;4999288;28;20061;-84
2022/06/12 06:15:26;;;;;;;14.18;5.95;;;;;;;22.14;39.70;102077.72;5015727;28;20069;-89
2022/06/12 06:17:52;;;;;;;17.58;5.65;;;;;;;22.46;39.37;102080.47;5033492;28;20045;-84
2022/06/12 06:20:26;;;;;;;18.42;6.57;;;;;;;22.48;39.48;102083.69;5015714;28;20033;-89
2022/06/12 06:22:53;;;;;;;25.65;7.43;;;;;;;22.22;39.41;102077.88;5032082;28;20033;-89
2022/06/12 06:25:20;;;;;;;22.05;5.30;;;;;;;22.26;39.07;102087.94;5031576;28;20060;-84
2022/06/12 06:27:46;;;;;;;18.38;5.53;;;;;;;22.14;39.32;102080.50;5015054;28;20029;-84
2022/06/12 06:30:13;;;;;;;26.83;6.93;;;;;;;22.07;39.41;102079.50;5015288;28;20026;-82
2022/06/12 06:32:39;;;;;;;21.70;5.55;;;;;;;22.19;39.25;102079.41;5014705;28;20125;-83
2022/06/12 06:35:06;;;;;;;15.65;4.78;;;;;;;22.35;38.89;102080.19;5032302;28;20064;-83
2022/06/12 06:37:33;;;;;;;13.95;5.38;;;;;;;22.12;39.53;102068.91;5014756;28;20033;-84
2022/06/12 06:39:58;;;;;;;17.08;5.25;;;;;;;22.41;38.89;102075.16;5032664;28;20022;-86
2022/06/12 06:42:24;;;;;;;19.67;5.53;;;;;;;22.41;38.91;102070.41;5032639;28;20037;-84
2022/06/12 06:47:36;;;;;;;16.58;5.45;;;;;;;22.19;39.17;102079.41;5032647;28;20045;-83
2022/06/12 06:50:08;;;;;;;20.00;6.03;;;;;;;22.15;39.32;102086.88;5012109;28;20025;-83
2022/06/12 06:52:34;;;;;;;20.08;4.95;;;;;;;22.18;39.44;102079.78;5007046;28;20480;-84
2022/06/12 06:54:59;;;;;;;22.70;6.38;;;;;;;22.33;39.09;102081.75;5004258;28;20103;-84
2022/06/12 06:57:25;;;;;;;22.95;5.63;;;;;;;22.13;39.46;102078.88;5032551;28;20033;-87
2022/06/12 06:59:51;;;;;;;13.48;4.78;;;;;;;22.46;39.09;102080.47;5019217;28;20026;-83
2022/06/12 07:02:16;;;;;;;16.77;4.95;;;;;;;22.31;39.11;102079.31;5012802;28;20495;-82
2022/06/12 07:04:43;;;;;;;16.08;5.45;;;;;;;22.31;39.16;102081.31;5012429;28;20484;-82
2022/06/12 07:07:09;;;;;;;12.75;4.35;;;;;;;22.43;39.07;102079.19;4995619;28;20491;-83
2022/06/12 07:09:37;;;;;;;15.63;3.63;;;;;;;22.40;39.30;102082.72;5014402;28;20033;-83
2022/06/12 07:12:03;;;;;;;16.65;5.35;;;;;;;22.72;38.24;102079.84;5032180;28;20029;-83
2022/06/12 07:14:28;;;;;;;18.85;5.07;;;;;;;22.71;38.02;102092.19;5032584;28;20480;-83
2022/06/12 07:16:55;;;;;;;15.18;4.38;;;;;;;22.71;37.46;102097.75;5029325;28;20109;-83
2022/06/12 07:19:22;;;;;;;14.68;3.92;;;;;;;22.64;37.29;102097.59;5005393;28;20557;-91
2022/06/12 07:21:47;;;;;;;14.85;4.50;;;;;;;22.68;37.67;102101.28;5022040;28;20059;-84
2022/06/12 07:24:13;;;;;;;10.35;3.40;;;;;;;22.54;37.77;102100.94;5023750;28;20033;-84
2022/06/12 07:26:42;;;;;;;10.68;3.80;;;;;;;22.52;37.97;102101.31;5007680;28;20034;-83
2022/06/12 07:29:08;;;;;;;13.55;4.28;;;;;;;22.39;38.00;102105.34;5005656;28;20030;-84
2022/06/12 07:31:34;;;;;;;15.65;4.65;;;;;;;22.44;37.74;102091.13;5024373;28;20036;-83
2022/06/12 07:34:00;;;;;;;13.27;3.78;;;;;;;22.63;36.92;102096.78;5005589;28;20096;-83
2022/06/12 07:36:27;;;;;;;12.65;4.43;;;;;;;22.90;36.43;102103.41;5024085;28;20044;-82
2022/06/12 07:38:53;;;;;;;15.20;4.47;;;;;;;22.94;36.39;102106.25;5005078;28;20033;-87
2022/06/12 07:41:19;;;;;;;10.00;3.60;;;;;;;22.69;37.01;102116.81;5007498;28;20369;-85
2022/06/12 07:43:46;;;;;;;13.63;4.30;;;;;;;22.93;36.73;102104.66;5023733;28;20033;-83
2022/06/12 07:46:14;;;;;;;8.23;3.00;;;;;;;22.83;36.37;102099.63;5024981;28;20026;-82
2022/06/12 07:48:41;;;;;;;12.07;3.60;;;;;;;22.73;36.76;102111.31;5006559;28;20199;-88
2022/06/12 07:51:10;;;;;;;13.38;4.10;;;;;;;23.09;36.10;102108.19;5021420;28;20037;-91
2022/06/12 07:53:37;;;;;;;13.43;3.88;;;;;;;23.13;36.00;102114.66;5007825;28;20025;-82
2022/06/12 07:56:02;;;;;;;7.00;2.33;;;;;;;22.80;36.52;102122.63;5024766;28;20025;-82
2022/06/12 07:58:28;;;;;;;12.30;4.00;;;;;;;22.81;36.33;102118.66;5031647;28;20025;-93
2022/06/12 08:00:58;;;;;;;13.05;2.92;;;;;;;22.97;36.37;102111.94;5007295;28;20026;-87
2022/06/12 08:03:24;;;;;;;;;;;;;;;23.04;35.84;102116.81;5010693;28;20057;-83
2022/06/12 08:05:50;;;;;;;12.80;3.33;;;;;;;23.16;36.13;102107.53;5007906;28;19951;-90
2022/06/12 08:08:16;;;;;;;13.85;4.22;;;;;;;23.52;35.54;102120.22;5026978;28;20476;-83
2022/06/12 08:10:42;;;;;;;14.32;3.28;;;;;;;23.74;35.47;102116.69;5006461;28;20157;-86
2022/06/12 08:13:10;;;;;;;10.43;3.70;;;;;;;23.52;35.22;102125.81;5006727;28;20025;-88
2022/06/12 08:15:37;;;;;;;7.78;2.40;;;;;;;23.40;35.08;102125.94;5006326;28;20100;-84
2022/06/12 08:18:04;;;;;;;9.45;2.60;;;;;;;23.50;34.53;102116.97;5022273;28;20046;-85
2022/06/12 08:20:31;;;;;;;12.45;3.50;;;;;;;23.88;34.38;102115.34;5004594;28;20049;-83
2022/06/12 08:23:26;;;;;;;11.73;3.17;;;;;;;23.65;34.69;102118.09;5026115;28;20036;-82
2022/06/12 08:26:02;;;;;;;12.15;4.05;;;;;;;23.68;34.90;102122.94;5025992;28;20025;-89
2022/06/12 08:28:30;;;;;;;20.73;4.50;;;;;;;23.61;34.59;102120.03;5007073;28;20029;-86
2022/06/12 08:30:57;;;;;;;11.48;3.45;;;;;;;23.76;34.16;102122.72;5002497;28;20034;-83
2022/06/12 08:33:23;;;;;;;12.35;3.17;;;;;;;23.78;33.86;102127.91;4997474;28;20036;-83
2022/06/12 08:35:50;;;;;;;6.93;2.60;;;;;;;23.27;34.65;102125.28;5003204;28;20037;-85
2022/06/12 08:38:16;;;;;;;9.45;3.15;;;;;;;23.30;34.42;102118.97;5009342;28;20022;-86
2022/06/12 08:41:08;;;;;;;12.25;2.85;;;;;;;23.51;34.03;102110.25;5007115;28;20040;-90
2022/06/12 08:43:40;;;;;;;12.88;3.75;;;;;;;23.31;34.22;102117.00;5005587;28;20396;-85
2022/06/12 08:46:43;;;;;;;9.77;3.40;;;;;;;23.61;33.72;102106.06;5007757;28;20029;-92
2022/06/12 08:49:19;;;;;;;7.55;2.90;;;;;;;23.93;33.71;102106.66;4969027;28;20505;-89
2022/06/12 08:51:56;;;;;;;6.68;2.15;;;;;;;23.90;33.75;102108.22;5003260;28;20029;-83
2022/06/12 08:54:30;;;;;;;10.50;2.47;;;;;;;23.98;33.93;102111.94;5025850;28;20048;-89
2022/06/12 08:57:04;;;;;;;9.20;2.95;;;;;;;24.26;33.16;102114.44;5025112;28;20057;-85
2022/06/12 08:59:54;;;;;;;10.52;2.90;;;;;;;23.88;33.19;102110.59;5001611;28;20033;-87
2022/06/12 09:02:26;;;;;;;12.23;3.47;;;;;;;23.79;33.39;102110.78;5022328;28;20026;-91
2022/06/12 09:04:53;;;;;;;8.05;2.10;;;;;;;23.47;33.90;102106.56;4998550;28;20026;-83
2022/06/12 09:07:26;;;;;;;10.57;3.17;;;;;;;24.35;32.94;102107.44;5009015;28;20090;-83
2022/06/12 09:10:01;;;;;;;12.52;3.08;;;;;;;24.20;33.82;102111.13;5010571;28;20021;-89
2022/06/12 09:12:49;;;;;;;18.10;4.25;;;;;;;23.61;34.02;102106.88;5024945;28;20082;-89
2022/06/12 09:15:37;;;;;;;7.47;2.70;;;;;;;23.88;33.18;102093.00;5011061;28;20108;-84
2022/06/12 09:18:29;;;;;;;10.32;3.22;;;;;;;23.69;34.04;102103.03;4999647;28;20077;-84
2022/06/12 09:21:18;;;;;;;11.95;3.40;;;;;;;24.07;33.56;102098.53;5004906;28;20066;-86
2022/06/12 09:24:03;;;;;;;12.63;3.55;;;;;;;24.24;33.35;102100.81;5018269;28;20065;-87
2022/06/12 09:26:41;;;;;;;9.65;3.08;;;;;;;24.32;33.83;102102.56;5021930;28;20127;-85
2022/06/12 09:29:21;;;;;;;9.63;2.75;;;;;;;24.22;33.52;102091.22;5010161;28;20033;-84
2022/06/12 09:32:18;;;;;;;10.00;3.60;;;;;;;23.90;33.86;102104.63;5022181;28;20030;-86
2022/06/12 09:35:35;;;;;;;14.35;4.03;;;;;;;24.27;33.35;102097.28;4990008;28;20072;-83
2022/06/12 09:38:24;;;;;;;10.40;4.20;;;;;;;24.21;33.60;102098.78;4947063;28;20031;-84
2022/06/12 09:41:12;;;;;;;8.82;2.58;;;;;;;23.88;34.03;102095.78;4955753;28;20114;-84
2022/06/12 09:43:46;;;;;;;11.50;3.00;;;;;;;24.23;32.93;102093.63;5005057;28;20044;-84
2022/06/12 09:46:48;;;;;;;14.70;4.22;;;;;;;24.41;33.29;102084.75;5013603;28;20710;-83
2022/06/12 09:49:50;;;;;;;12.00;3.05;;;;;;;24.21;33.46;102109.16;5013624;28;20044;-84
2022/06/12 09:52:41;;;;;;;9.93;2.90;;;;;;;24.14;33.49;102098.66;5013627;28;20080;-83
2022/06/12 09:55:19;;;;;;;8.27;2.97;;;;;;;24.12;33.45;102098.22;4996002;28;20457;-84
2022/06/12 09:58:13;;;;;;;10.93;3.22;;;;;;;24.20;32.93;102108.34;5013638;28;20085;-84
2022/06/12 10:00:45;;;;;;;11.68;3.72;;;;;;;24.75;32.90;102108.03;5013955;28;20021;-84
2022/06/12 10:03:17;;;;;;;10.05;3.15;;;;;;;24.42;32.88;102105.94;5013368;28;20030;-84
2022/06/12 10:05:56;;;;;;;8.73;3.15;;;;;;;24.43;33.33;102102.75;5013532;28;20022;-88
2022/06/12 10:08:32;;;;;;;12.00;3.67;;;;;;;24.42;33.03;102103.13;5013489;28;20113;-87
2022/06/12 10:11:00;;;;;;;18.20;3.33;;;;;;;24.35;33.17;102099.03;5013419;28;20388;-85
2022/06/12 10:13:41;;;;;;;14.65;6.40;;;;;;;24.32;33.29;102099.78;4995531;28;20033;-85
2022/06/12 10:16:18;;;;;;;10.63;3.22;;;;;;;24.68;33.05;102100.34;5013247;28;20026;-83
2022/06/12 10:18:52;;;;;;;10.18;3.03;;;;;;;24.01;33.66;102105.59;4992446;28;20405;-86
2022/06/12 10:21:21;;;;;;;11.27;4.63;;;;;;;24.53;33.41;102090.13;4992474;28;20030;-83
2022/06/12 10:23:48;;;;;;;8.75;2.78;;;;;;;24.06;33.70;102105.31;4993599;28;20378;-84
2022/06/12 10:26:20;;;;;;;9.90;3.05;;;;;;;24.38;33.42;102099.47;4993651;28;20026;-84
2022/06/12 10:29:03;;;;;;;13.15;3.33;;;;;;;24.24;33.95;102114.78;4993498;28;20039;-85
2022/06/12 10:31:30;;;;;;;7.93;3.00;;;;;;;24.22;33.53;102117.16;4993572;28;20038;-85
2022/06/12 10:34:20;;;;;;;5.18;1.92;;;;;;;24.13;35.09;102127.75;4992255;28;20484;-85
2022/06/12 10:36:46;;;;;;;6.93;1.90;;;;;;;23.92;35.90;102146.91;4994079;28;20030;-84
2022/06/12 10:39:17;;;;;;;3.60;1.30;;;;;;;23.74;36.07;102143.81;4993836;28;20041;-85
2022/06/12 10:41:52;;;;;;;5.68;1.50;;;;;;;23.64;36.18;102139.59;5006957;28;20025;-84
2022/06/12 10:44:44;;;;;;;4.97;1.75;;;;;;;23.64;36.75;102149.97;5012160;28;20056;-84
2022/06/12 10:47:23;;;;;;;5.13;1.88;;;;;;;23.85;36.58;102149.56;5012828;28;20049;-84
2022/06/12 10:50:20;;;;;;;2.17;1.00;;;;;;;23.78;37.56;102155.81;5029266;28;20194;-83
2022/06/12 10:53:08;;;;;;;3.35;1.08;;;;;;;23.41;38.85;102133.94;5015926;28;20034;-86
2022/06/12 10:56:00;;;;;;;4.38;1.35;;;;;;;23.68;37.97;102134.91;4989855;28;20052;-84
2022/06/12 10:58:41;;;;;;;14.40;2.60;;;;;;;23.62;38.94;102130.81;5003185;28;20045;-84
2022/06/12 11:01:25;;;;;;;12.75;2.38;;;;;;;24.17;38.61;102138.97;5015817;28;20064;-83
2022/06/12 11:04:20;;;;;;;10.18;2.13;;;;;;;24.37;38.47;102129.41;5016178;28;20091;-84
2022/06/12 11:06:58;;;;;;;11.85;2.08;;;;;;;24.39;38.48;102129.00;5014252;28;20030;-83
2022/06/12 11:09:43;;;;;;;6.38;1.88;;;;;;;24.60;37.29;102126.56;5015181;28;20034;-83
2022/06/12 11:12:32;;;;;;;4.65;1.90;;;;;;;24.62;37.51;102135.38;5014431;28;20064;-83
2022/06/12 11:15:33;;;;;;;12.70;2.67;;;;;;;24.91;37.46;102128.22;5032185;28;20084;-84
2022/06/12 11:18:14;;;;;;;7.72;2.00;;;;;;;25.06;36.93;102124.47;4920708;29;20079;-82
2022/06/12 11:21:18;;;;;;;7.50;1.95;;;;;;;25.15;36.95;102119.38;5005648;28;20034;-83
2022/06/12 11:23:53;;;;;;;11.90;2.50;;;;;;;25.46;36.40;102114.56;4935250;28;20757;-83
2022/06/12 11:26:47;;;;;;;5.72;2.05;;;;;;;25.36;35.94;102116.06;5016099;28;20034;-83
2022/06/12 11:29:37;;;;;;;5.85;1.50;;;;;;;25.48;35.59;102101.00;5031497;28;20438;-83
2022/06/12 11:32:21;;;;;;;7.78;1.80;;;;;;;26.06;34.55;102094.81;5015162;28;20068;-83
2022/06/12 11:35:02;;;;;;;10.07;2.58;;;;;;;26.38;34.71;102097.88;5031788;28;20552;-83
2022/06/12 11:37:43;;;;;;;9.68;2.83;;;;;;;26.26;34.14;102106.59;5031695;28;20041;-83
2022/06/12 11:40:42;;;;;;;9.07;2.35;;;;;;;25.84;33.55;102096.59;5015344;28;20026;-84
2022/06/12 11:43:22;;;;;;;11.13;3.20;;;;;;;26.27;33.50;102108.19;5014831;28;20026;-84
2022/06/12 11:46:07;;;;;;;9.02;2.05;;;;;;;26.05;33.65;102106.41;5015138;28;20026;-82
2022/06/12 11:49:09;;;;;;;7.22;1.63;;;;;;;25.78;33.17;102100.97;5014638;28;20034;-83
2022/06/12 11:51:56;;;;;;;7.10;2.22;;;;;;;26.14;32.45;102106.88;5014700;28;20029;-93
2022/06/12 11:54:58;;;;;;;7.68;2.20;;;;;;;26.28;32.52;102098.59;5016248;28;20451;-86
2022/06/12 11:57:46;;;;;;;10.77;3.30;;;;;;;26.19;32.53;102090.53;5014348;28;20026;-83
2022/06/12 12:00:32;;;;;;;3.10;1.23;;;;;;;25.93;31.42;102083.09;5015095;28;20041;-83
2022/06/12 12:03:22;;;;;;;5.82;1.60;;;;;;;26.02;31.35;102085.59;5014309;28;20029;-84